createdAt,value
2022-11-11T00:01:13.507Z,102769.59
2022-11-11T00:06:33.951Z,102782.09
2022-11-11T00:11:54.882Z,102784.78
2022-11-11T00:17:34.211Z,102800.72
2022-11-11T00:23:13.435Z,102785.53
2022-11-11T00:28:34.094Z,102782.09
2022-11-11T00:33:54.845Z,102779.53
2022-11-11T00:39:15.813Z,102767.13
2022-11-11T00:44:36.192Z,102750.03
2022-11-11T00:50:15.393Z,102749.06
2022-11-11T00:55:36.271Z,102755.38
2022-11-11T01:00:56.737Z,102781.34
2022-11-11T01:06:17.645Z,102795.56
2022-11-11T01:11:38.346Z,102783.06
2022-11-11T01:16:58.865Z,102742.00
2022-11-11T01:22:19.328Z,102749.16
2022-11-11T01:27:40.129Z,102757.28
2022-11-11T01:33:01.563Z,102758.13
2022-11-11T01:38:22.334Z,102760.81
2022-11-11T01:43:43.035Z,102779.53
2022-11-11T01:49:26.064Z,102771.63
2022-11-11T01:54:53.232Z,102793.09
2022-11-11T02:00:17.607Z,102787.53
2022-11-11T02:05:45.970Z,102768.84
2022-11-11T02:11:13.031Z,102786.69
2022-11-11T02:16:34.113Z,102807.22
2022-11-11T02:22:00.362Z,102778.09
2022-11-11T02:27:24.256Z,102777.94
2022-11-11T02:32:47.286Z,102783.19
2022-11-11T02:38:09.018Z,102792.03
2022-11-11T02:43:33.544Z,102793.00
2022-11-11T02:48:54.198Z,102803.78
2022-11-11T02:54:14.914Z,102793.97
2022-11-11T02:59:37.463Z,102788.63
2022-11-11T03:04:58.350Z,102798.34
2022-11-11T03:10:19.266Z,102796.63
2022-11-11T03:15:40.189Z,102784.22
2022-11-11T03:21:54.392Z,102778.88
2022-11-11T03:26:47.167Z,102801.13
2022-11-11T03:32:08.006Z,102804.66
2022-11-11T03:37:57.689Z,102804.75
2022-11-11T03:43:20.309Z,102794.06
2022-11-11T03:48:40.684Z,102796.72
2022-11-11T03:54:01.337Z,102809.13
2022-11-11T03:59:21.689Z,102797.59
2022-11-11T04:05:00.950Z,102782.59
2022-11-11T04:10:24.761Z,102768.38
2022-11-11T04:16:03.796Z,102763.88
2022-11-11T04:21:43.803Z,102762.84
2022-11-11T04:27:08.700Z,102748.81
2022-11-11T04:32:35.587Z,102735.44
2022-11-11T04:38:16.118Z,102723.81
2022-11-11T04:43:56.634Z,102732.59
2022-11-11T04:49:17.231Z,102727.34
2022-11-11T04:54:57.605Z,102715.03
2022-11-11T05:00:19.518Z,102713.09
2022-11-11T05:05:58.696Z,102710.44
2022-11-11T05:11:19.927Z,102713.97
2022-11-11T05:17:07.439Z,102690.13
2022-11-11T05:22:34.773Z,102680.31
2022-11-11T05:27:57.216Z,102642.78
2022-11-11T05:33:17.943Z,102628.53
2022-11-11T05:38:38.703Z,102616.19
2022-11-11T05:43:59.502Z,102609.13
2022-11-11T05:49:20.089Z,102609.13
2022-11-11T05:54:40.649Z,102616.03
2022-11-11T06:00:01.229Z,102612.50
2022-11-11T06:05:21.874Z,102609.13
2022-11-11T06:10:43.797Z,102611.78
2022-11-11T06:16:05.682Z,102625.06
2022-11-11T06:21:27.459Z,102618.00
2022-11-11T06:26:48.311Z,102632.28
2022-11-11T06:32:09.854Z,102633.16
2022-11-11T06:37:30.675Z,102640.22
2022-11-11T06:42:51.327Z,102643.75
2022-11-11T06:48:12.393Z,102665.22
2022-11-11T06:53:32.901Z,102661.66
2022-11-11T06:58:53.451Z,102662.56
2022-11-11T07:04:13.817Z,102668.63
2022-11-11T07:09:34.631Z,102676.84
2022-11-11T07:14:55.264Z,102685.72
2022-11-11T07:20:16.274Z,102696.34
2022-11-11T07:25:36.915Z,102692.81
2022-11-11T07:30:57.722Z,102695.53
2022-11-11T07:36:18.360Z,102701.75
2022-11-11T07:41:39.235Z,102710.66
2022-11-11T07:46:59.598Z,102705.22
2022-11-11T07:52:20.222Z,102700.03
2022-11-11T07:57:40.989Z,102707.19
2022-11-11T08:03:06.794Z,102706.22
2022-11-11T08:08:30.322Z,102719.53
2022-11-11T08:13:52.277Z,102732.03
2022-11-11T08:19:12.687Z,102727.59
2022-11-11T08:30:14.004Z,102730.22
2022-11-11T08:35:34.845Z,102726.69
2022-11-11T08:40:56.057Z,102721.41
2022-11-11T08:46:16.782Z,102738.28
2022-11-11T08:51:44.483Z,102740.91
2022-11-11T08:57:05.264Z,102737.38
2022-11-11T09:02:25.918Z,102745.44
2022-11-11T09:07:46.824Z,102760.53
2022-11-11T09:13:07.288Z,102773.84
2022-11-11T09:18:28.142Z,102770.38
2022-11-11T09:23:48.603Z,102776.66
2022-11-11T09:29:08.969Z,102785.53
2022-11-11T09:34:29.716Z,102789.00
2022-11-11T09:39:50.266Z,102796.06
2022-11-11T09:45:25.959Z,102790.03
2022-11-11T09:50:54.650Z,102803.22
2022-11-11T09:56:35.199Z,102814.78
2022-11-11T10:01:58.976Z,102813.06
2022-11-11T10:07:34.323Z,102815.78
2022-11-11T10:12:57.771Z,102814.88
2022-11-11T10:18:46.105Z,102821.06
2022-11-11T10:24:15.033Z,102827.16
2022-11-11T10:29:44.641Z,102820.22
2022-11-11T10:35:17.783Z,102807.78
2022-11-11T10:40:46.667Z,102809.44
2022-11-11T10:46:40.671Z,102813.06
2022-11-11T10:52:17.004Z,102815.72
2022-11-11T10:57:44.913Z,102812.13
2022-11-11T11:03:14.621Z,102812.00
2022-11-11T11:08:41.683Z,102810.19
2022-11-11T11:14:29.376Z,102802.25
2022-11-11T11:20:13.172Z,102804.09
2022-11-11T11:25:34.065Z,102812.75
2022-11-11T11:31:12.725Z,102808.38
2022-11-11T11:36:33.262Z,102797.69
2022-11-11T11:41:54.545Z,102797.75
2022-11-11T11:47:38.101Z,102790.59
2022-11-11T11:53:22.618Z,102795.00
2022-11-11T11:59:08.005Z,102790.50
2022-11-11T12:04:52.148Z,102782.72
2022-11-11T12:10:24.523Z,102778.00
2022-11-11T12:16:33.290Z,102784.22
2022-11-11T12:22:25.311Z,102774.56
2022-11-11T12:27:54.810Z,102764.66
2022-11-11T12:33:57.386Z,102769.22
2022-11-11T12:39:40.150Z,102769.03
2022-11-11T12:45:05.833Z,102758.34
2022-11-11T12:50:38.200Z,102761.97
2022-11-11T12:56:16.633Z,102762.84
2022-11-11T13:01:57.790Z,102752.06
2022-11-11T13:07:36.808Z,102745.84
2022-11-11T13:13:24.818Z,102753.97
2022-11-11T13:18:58.781Z,102744.13
2022-11-11T13:24:22.953Z,102739.56
2022-11-11T13:29:46.380Z,102731.41
2022-11-11T13:35:33.148Z,102742.22
2022-11-11T13:40:57.542Z,102735.16
2022-11-11T13:46:39.396Z,102729.81
2022-11-11T13:52:02.393Z,102737.63
2022-11-11T13:57:27.344Z,102739.44
2022-11-11T14:02:48.874Z,102743.91
2022-11-11T14:08:10.359Z,102744.78
2022-11-11T14:13:34.937Z,102741.06
2022-11-11T14:18:55.730Z,102747.25
2022-11-11T14:24:38.361Z,102742.22
2022-11-11T14:29:59.970Z,102750.03
2022-11-11T14:35:44.950Z,102750.97
2022-11-11T14:41:42.186Z,102748.22
2022-11-11T14:47:02.508Z,102746.50
2022-11-11T14:52:41.805Z,102739.44
2022-11-11T14:58:13.492Z,102740.19
2022-11-11T15:03:39.496Z,102738.28
2022-11-11T15:09:28.309Z,102736.66
2022-11-11T15:15:21.049Z,102749.06
2022-11-11T15:21:02.754Z,102746.41
2022-11-11T15:27:00.136Z,102744.50
2022-11-11T15:32:26.412Z,102749.84
2022-11-11T15:37:56.378Z,102750.78
2022-11-11T15:43:24.960Z,102757.88
2022-11-11T15:48:46.548Z,102760.41
2022-11-11T15:54:20.276Z,102756.88
2022-11-11T15:59:41.397Z,102751.66
2022-11-11T16:05:11.364Z,102748.03
2022-11-11T16:10:41.502Z,102744.38
2022-11-11T16:16:10.365Z,102750.56
2022-11-11T16:21:43.171Z,102740.09
2022-11-11T16:27:08.574Z,102749.84
2022-11-11T16:32:29.050Z,102745.22
2022-11-11T16:37:54.855Z,102746.94
2022-11-11T16:43:28.657Z,102752.50
2022-11-11T16:48:50.633Z,102748.22
2022-11-11T16:54:20.639Z,102753.25
2022-11-11T16:59:48.126Z,102755.91
2022-11-11T17:05:09.037Z,102763.94
2022-11-11T17:10:47.692Z,102762.34
2022-11-11T17:16:09.101Z,102760.41
2022-11-11T17:21:29.573Z,102764.81
2022-11-11T17:26:49.980Z,102765.66
2022-11-11T17:32:10.658Z,102775.59
2022-11-11T17:37:39.059Z,102793.34
2022-11-11T17:42:59.581Z,102804.91
2022-11-11T17:48:20.237Z,102807.47
2022-11-11T17:53:40.862Z,102809.38
2022-11-11T17:59:01.745Z,102814.72
2022-11-11T18:04:22.083Z,102812.91
2022-11-11T18:09:42.933Z,102820.94
2022-11-11T18:15:04.987Z,102810.16
2022-11-11T18:20:25.619Z,102812.91
2022-11-11T18:25:46.148Z,102818.25
2022-11-11T18:31:09.208Z,102824.47
2022-11-11T18:36:29.806Z,102823.53
2022-11-11T18:41:50.470Z,102823.59
2022-11-11T18:47:10.967Z,102818.25
2022-11-11T18:52:31.490Z,102823.59
2022-11-11T18:57:52.052Z,102826.19
2022-11-11T19:03:12.444Z,102826.19
2022-11-11T19:08:34.589Z,102817.41
2022-11-11T19:13:56.070Z,102827.16
2022-11-11T19:19:17.565Z,102833.34
2022-11-11T19:24:38.481Z,102826.19
2022-11-11T19:29:58.903Z,102820.94
2022-11-11T19:35:19.232Z,102828.09
2022-11-11T19:40:39.637Z,102827.16
2022-11-11T19:46:00.526Z,102837.84
2022-11-11T19:51:22.631Z,102838.69
2022-11-11T19:56:43.228Z,102833.56
2022-11-11T20:02:04.055Z,102838.78
2022-11-11T20:07:24.653Z,102836.13
2022-11-11T20:12:45.110Z,102849.38
2022-11-11T20:18:05.857Z,102846.81
2022-11-11T20:23:27.387Z,102848.63
2022-11-11T20:28:48.181Z,102838.91
2022-11-11T20:34:10.190Z,102838.69
2022-11-11T20:39:30.946Z,102847.66
2022-11-11T20:44:51.667Z,102846.94
2022-11-11T20:50:12.604Z,102843.28
2022-11-11T20:55:33.525Z,102854.81
2022-11-11T21:00:54.056Z,102859.22
2022-11-11T21:06:17.450Z,102852.16
2022-11-11T21:11:38.217Z,102858.44
2022-11-11T21:16:59.046Z,102856.63
2022-11-11T21:22:19.372Z,102863.69
2022-11-11T21:27:40.723Z,102860.28
2022-11-11T21:33:06.931Z,102859.44
2022-11-11T21:38:28.857Z,102855.78
2022-11-11T21:43:50.056Z,102856.63
2022-11-11T21:49:10.492Z,102859.31
2022-11-11T21:54:30.998Z,102856.75
2022-11-11T21:59:51.558Z,102849.59
2022-11-11T22:05:12.356Z,102851.41
2022-11-11T22:10:32.892Z,102856.63
2022-11-11T22:16:29.869Z,102855.03
2022-11-11T22:21:50.528Z,102858.56
2022-11-11T22:27:10.962Z,102862.09
2022-11-11T22:32:31.915Z,102850.56
2022-11-11T22:37:52.528Z,102852.28
2022-11-11T22:43:13.354Z,102846.94
2022-11-11T22:48:37.531Z,102844.34
2022-11-11T22:54:00.633Z,102849.59
2022-11-11T22:59:21.654Z,102846.06
2022-11-11T23:04:42.401Z,102851.41
2022-11-11T23:10:02.845Z,102847.03
2022-11-11T23:15:23.310Z,102843.50
2022-11-11T23:20:52.161Z,102853.22
2022-11-11T23:26:24.727Z,102848.75
2022-11-11T23:31:46.596Z,102844.34
2022-11-11T23:37:08.301Z,102846.25
2022-11-11T23:42:28.945Z,102852.38
2022-11-11T23:47:49.394Z,102851.41
2022-11-11T23:53:09.869Z,102850.56
2022-11-11T23:58:30.564Z,102855.91
